createdAt,value
2022-08-05T00:00:20.000Z,5
2022-08-05T00:01:37.000Z,5
2022-08-05T00:02:53.000Z,5
2022-08-05T00:04:09.000Z,5
2022-08-05T00:05:25.000Z,5
2022-08-05T00:06:42.000Z,5
2022-08-05T00:07:58.000Z,5
2022-08-05T00:09:14.000Z,5
2022-08-05T00:10:30.000Z,5
2022-08-05T00:11:45.000Z,5
2022-08-05T00:13:02.000Z,5
2022-08-05T00:14:18.000Z,5
2022-08-05T00:15:34.000Z,5
2022-08-05T00:16:50.000Z,5
2022-08-05T00:18:07.000Z,5
2022-08-05T00:19:22.000Z,5
2022-08-05T00:20:37.000Z,5
2022-08-05T00:21:53.000Z,5
2022-08-05T00:23:09.000Z,5
2022-08-05T00:24:24.000Z,5
2022-08-05T00:25:40.000Z,5
2022-08-05T00:26:56.000Z,5
2022-08-05T00:28:13.000Z,5
2022-08-05T00:29:29.000Z,5
2022-08-05T00:30:45.000Z,5
2022-08-05T00:32:01.000Z,5
2022-08-05T00:33:18.000Z,5
2022-08-05T00:34:34.000Z,5
2022-08-05T00:35:50.000Z,5
2022-08-05T00:37:06.000Z,5
2022-08-05T00:38:22.000Z,5
2022-08-05T00:39:39.000Z,5
2022-08-05T00:40:55.000Z,5
2022-08-05T00:42:11.000Z,5
2022-08-05T00:43:26.000Z,5
2022-08-05T00:44:43.000Z,5
2022-08-05T00:45:59.000Z,5
2022-08-05T00:47:15.000Z,5
2022-08-05T00:48:31.000Z,5
2022-08-05T00:49:48.000Z,5
2022-08-05T00:51:04.000Z,5
2022-08-05T00:52:20.000Z,5
2022-08-05T00:53:36.000Z,5
2022-08-05T00:54:53.000Z,5
2022-08-05T00:56:09.000Z,5
2022-08-05T00:57:25.000Z,5
2022-08-05T00:58:41.000Z,5
2022-08-05T00:59:56.000Z,5
2022-08-05T01:01:12.000Z,5
2022-08-05T01:02:28.000Z,5
2022-08-05T01:03:44.000Z,5
2022-08-05T01:05:00.000Z,5
2022-08-05T01:06:17.000Z,5
2022-08-05T01:07:32.000Z,5
2022-08-05T01:08:47.000Z,5
2022-08-05T01:10:03.000Z,5
2022-08-05T01:11:20.000Z,5
2022-08-05T01:12:36.000Z,5
2022-08-05T01:13:52.000Z,5
2022-08-05T01:15:08.000Z,5
2022-08-05T01:16:25.000Z,5
2022-08-05T01:17:41.000Z,5
2022-08-05T01:18:57.000Z,5
2022-08-05T01:20:13.000Z,5
2022-08-05T01:21:30.000Z,5
2022-08-05T01:22:46.000Z,5
2022-08-05T01:24:02.000Z,5
2022-08-05T01:25:17.000Z,5
2022-08-05T01:26:33.000Z,5
2022-08-05T01:27:50.000Z,5
2022-08-05T01:29:06.000Z,5
2022-08-05T01:30:22.000Z,5
2022-08-05T01:31:38.000Z,5
2022-08-05T01:32:55.000Z,5
2022-08-05T01:34:11.000Z,5
2022-08-05T01:35:27.000Z,5
2022-08-05T01:36:43.000Z,5
2022-08-05T01:38:00.000Z,5
2022-08-05T01:39:16.000Z,5
2022-08-05T01:40:32.000Z,5
2022-08-05T01:41:47.000Z,5
2022-08-05T01:43:04.000Z,5
2022-08-05T01:44:20.000Z,5
2022-08-05T01:45:35.000Z,5
2022-08-05T01:46:50.000Z,5
2022-08-05T01:48:07.000Z,5
2022-08-05T01:49:22.000Z,5
2022-08-05T01:50:37.000Z,5
2022-08-05T01:51:53.000Z,5
2022-08-05T01:53:09.000Z,5
2022-08-05T01:54:26.000Z,5
2022-08-05T01:55:42.000Z,5
2022-08-05T01:56:58.000Z,5
2022-08-05T01:58:14.000Z,5
2022-08-05T01:59:31.000Z,5
2022-08-05T02:00:47.000Z,5
2022-08-05T02:02:03.000Z,5
2022-08-05T02:03:19.000Z,5
2022-08-05T02:04:36.000Z,5
2022-08-05T02:05:52.000Z,5
2022-08-05T02:07:08.000Z,5
2022-08-05T02:08:23.000Z,5
2022-08-05T02:09:40.000Z,5
2022-08-05T02:10:56.000Z,5
2022-08-05T02:12:12.000Z,5
2022-08-05T02:13:28.000Z,5
2022-08-05T02:14:44.000Z,5
2022-08-05T02:16:00.000Z,5
2022-08-05T02:17:15.000Z,5
2022-08-05T02:18:31.000Z,5
2022-08-05T02:19:47.000Z,5
2022-08-05T02:21:04.000Z,5
2022-08-05T02:22:20.000Z,5
2022-08-05T02:23:35.000Z,5
2022-08-05T02:24:50.000Z,5
2022-08-05T02:26:07.000Z,5
2022-08-05T02:27:23.000Z,5
2022-08-05T02:28:39.000Z,5
2022-08-05T02:29:55.000Z,5
2022-08-05T02:31:12.000Z,5
2022-08-05T02:32:28.000Z,5
2022-08-05T02:33:43.000Z,5
2022-08-05T02:34:59.000Z,5
2022-08-05T02:36:16.000Z,5
2022-08-05T02:37:32.000Z,5
2022-08-05T02:38:48.000Z,5
2022-08-05T02:40:04.000Z,5
2022-08-05T02:41:21.000Z,5
2022-08-05T02:42:37.000Z,5
2022-08-05T02:43:53.000Z,5
2022-08-05T02:45:09.000Z,5
2022-08-05T02:46:25.000Z,5
2022-08-05T02:47:42.000Z,5
2022-08-05T02:48:58.000Z,5
2022-08-05T02:50:13.000Z,5
2022-08-05T02:51:28.000Z,5
2022-08-05T02:52:44.000Z,5
2022-08-05T02:53:59.000Z,5
2022-08-05T02:55:15.000Z,5
2022-08-05T02:56:31.000Z,5
2022-08-05T02:57:48.000Z,5
2022-08-05T02:59:04.000Z,5
2022-08-05T03:00:20.000Z,5
2022-08-05T03:01:36.000Z,5
2022-08-05T03:02:53.000Z,5
2022-08-05T03:04:09.000Z,5
2022-08-05T03:05:25.000Z,5
2022-08-05T03:06:41.000Z,5
2022-08-05T03:07:58.000Z,5
2022-08-05T03:09:14.000Z,5
2022-08-05T03:10:29.000Z,5
2022-08-05T03:11:45.000Z,5
2022-08-05T03:14:18.000Z,5
2022-08-05T03:15:34.000Z,5
2022-08-05T03:16:50.000Z,5
2022-08-05T03:18:06.000Z,5
2022-08-05T03:19:22.000Z,5
2022-08-05T03:20:37.000Z,5
2022-08-05T03:21:53.000Z,5
2022-08-05T03:23:09.000Z,5
2022-08-05T03:24:26.000Z,5
2022-08-05T03:25:42.000Z,5
2022-08-05T03:26:58.000Z,5
2022-08-05T03:28:13.000Z,22
2022-08-05T03:29:29.000Z,5
2022-08-05T03:30:45.000Z,5
2022-08-05T03:32:01.000Z,5
2022-08-05T03:33:17.000Z,5
2022-08-05T03:34:34.000Z,0
2022-08-05T03:35:50.000Z,0
2022-08-05T03:37:06.000Z,0
2022-08-05T03:38:22.000Z,0
2022-08-05T03:39:38.000Z,0
2022-08-05T03:40:55.000Z,5
2022-08-05T03:42:11.000Z,0
2022-08-05T03:43:27.000Z,5
2022-08-05T03:44:43.000Z,5
2022-08-05T03:45:59.000Z,5
2022-08-05T03:47:15.000Z,5
2022-08-05T03:48:31.000Z,5
2022-08-05T03:49:47.000Z,5
2022-08-05T03:51:04.000Z,5
2022-08-05T03:52:20.000Z,5
2022-08-05T03:53:36.000Z,0
2022-08-05T03:54:51.000Z,5
2022-08-05T03:56:07.000Z,5
2022-08-05T03:57:23.000Z,11
2022-08-05T03:58:38.000Z,0
2022-08-05T03:59:53.000Z,0
2022-08-05T04:01:10.000Z,0
2022-08-05T04:02:26.000Z,0
2022-08-05T04:03:42.000Z,0
2022-08-05T04:04:58.000Z,0
2022-08-05T04:06:14.000Z,0
2022-08-05T04:07:31.000Z,0
2022-08-05T04:08:47.000Z,0
2022-08-05T04:10:03.000Z,0
2022-08-05T04:11:19.000Z,0
2022-08-05T04:13:52.000Z,0
2022-08-05T04:15:08.000Z,0
2022-08-05T04:16:24.000Z,5
2022-08-05T04:17:41.000Z,5
2022-08-05T04:18:56.000Z,5
2022-08-05T04:20:12.000Z,5
2022-08-05T04:21:28.000Z,5
2022-08-05T04:22:45.000Z,5
2022-08-05T04:24:01.000Z,5
2022-08-05T04:25:16.000Z,11
2022-08-05T04:26:32.000Z,11
2022-08-05T04:27:48.000Z,11
2022-08-05T04:29:04.000Z,5
2022-08-05T04:30:20.000Z,5
2022-08-05T04:31:36.000Z,5
2022-08-05T04:32:51.000Z,5
2022-08-05T04:34:07.000Z,5
2022-08-05T04:35:23.000Z,5
2022-08-05T04:36:39.000Z,5
2022-08-05T04:37:55.000Z,5
2022-08-05T04:39:12.000Z,5
2022-08-05T04:40:28.000Z,5
2022-08-05T04:41:44.000Z,5
2022-08-05T04:43:00.000Z,11
2022-08-05T04:44:17.000Z,11
2022-08-05T04:45:33.000Z,11
2022-08-05T04:46:49.000Z,11
2022-08-05T04:48:05.000Z,11
2022-08-05T04:49:22.000Z,11
2022-08-05T04:50:37.000Z,11
2022-08-05T04:51:53.000Z,11
2022-08-05T04:53:09.000Z,16
2022-08-05T04:54:25.000Z,16
2022-08-05T04:55:42.000Z,22
2022-08-05T04:56:58.000Z,28
2022-08-05T04:58:14.000Z,28
2022-08-05T04:59:30.000Z,28
2022-08-05T05:00:47.000Z,28
2022-08-05T05:02:02.000Z,28
2022-08-05T05:03:17.000Z,22
2022-08-05T05:04:33.000Z,22
2022-08-05T05:05:50.000Z,16
2022-08-05T05:07:06.000Z,22
2022-08-05T05:08:22.000Z,22
2022-08-05T05:09:38.000Z,33
2022-08-05T05:10:55.000Z,39
2022-08-05T05:12:10.000Z,45
2022-08-05T05:13:25.000Z,50
2022-08-05T05:14:41.000Z,50
2022-08-05T05:15:58.000Z,50
2022-08-05T05:17:14.000Z,45
2022-08-05T05:18:30.000Z,45
2022-08-05T05:19:46.000Z,45
2022-08-05T05:21:02.000Z,45
2022-08-05T05:22:19.000Z,50
2022-08-05T05:23:35.000Z,61
2022-08-05T05:24:51.000Z,67
2022-08-05T05:26:07.000Z,84
2022-08-05T05:27:24.000Z,95
2022-08-05T05:28:40.000Z,106
2022-08-05T05:29:55.000Z,106
2022-08-05T05:31:11.000Z,95
2022-08-05T05:32:28.000Z,78
2022-08-05T05:33:44.000Z,61
2022-08-05T05:35:00.000Z,45
2022-08-05T05:36:16.000Z,39
2022-08-05T05:37:33.000Z,39
2022-08-05T05:38:49.000Z,33
2022-08-05T05:40:05.000Z,28
2022-08-05T05:41:21.000Z,22
2022-08-05T05:42:37.000Z,16
2022-08-05T05:43:54.000Z,22
2022-08-05T05:45:10.000Z,28
2022-08-05T05:46:25.000Z,39
2022-08-05T05:47:41.000Z,39
2022-08-05T05:48:58.000Z,39
2022-08-05T05:50:14.000Z,45
2022-08-05T05:51:30.000Z,45
2022-08-05T05:52:46.000Z,45
2022-08-05T05:54:03.000Z,45
2022-08-05T05:55:19.000Z,50
2022-08-05T05:56:34.000Z,67
2022-08-05T05:57:49.000Z,90
2022-08-05T05:59:06.000Z,118
2022-08-05T06:00:21.000Z,151
2022-08-05T06:01:36.000Z,180
2022-08-05T06:02:52.000Z,180
2022-08-05T06:04:09.000Z,163
2022-08-05T06:05:25.000Z,135
2022-08-05T06:06:41.000Z,106
2022-08-05T06:07:57.000Z,95
2022-08-05T06:09:13.000Z,90
2022-08-05T06:10:30.000Z,84
2022-08-05T06:11:46.000Z,84
2022-08-05T06:13:02.000Z,90
2022-08-05T06:14:18.000Z,95
2022-08-05T06:15:35.000Z,101
2022-08-05T06:16:51.000Z,101
2022-08-05T06:18:06.000Z,101
2022-08-05T06:19:22.000Z,106
2022-08-05T06:20:39.000Z,123
2022-08-05T06:21:55.000Z,140
2022-08-05T06:23:11.000Z,151
2022-08-05T06:24:27.000Z,157
2022-08-05T06:25:44.000Z,146
2022-08-05T06:27:00.000Z,135
2022-08-05T06:28:16.000Z,123
2022-08-05T06:29:32.000Z,123
2022-08-05T06:30:48.000Z,118
2022-08-05T06:32:05.000Z,118
2022-08-05T06:33:21.000Z,118
2022-08-05T06:34:36.000Z,129
2022-08-05T06:35:51.000Z,135
2022-08-05T06:37:07.000Z,140
2022-08-05T06:38:22.000Z,146
2022-08-05T06:39:38.000Z,146
2022-08-05T06:40:54.000Z,151
2022-08-05T06:42:11.000Z,151
2022-08-05T06:43:27.000Z,168
2022-08-05T06:44:43.000Z,185
2022-08-05T06:45:59.000Z,185
2022-08-05T06:47:16.000Z,174
2022-08-05T06:48:32.000Z,157
2022-08-05T06:49:47.000Z,157
2022-08-05T06:51:03.000Z,157
2022-08-05T06:52:20.000Z,146
2022-08-05T06:53:36.000Z,129
2022-08-05T06:54:52.000Z,118
2022-08-05T06:56:08.000Z,112
2022-08-05T06:57:24.000Z,106
2022-08-05T06:58:41.000Z,101
2022-08-05T06:59:57.000Z,101
2022-08-05T07:01:13.000Z,101
2022-08-05T07:02:29.000Z,95
2022-08-05T07:03:46.000Z,95
2022-08-05T07:05:02.000Z,95
2022-08-05T07:06:17.000Z,95
2022-08-05T07:07:32.000Z,90
2022-08-05T07:08:48.000Z,90
2022-08-05T07:10:03.000Z,90
2022-08-05T07:11:19.000Z,95
2022-08-05T07:12:35.000Z,95
2022-08-05T07:13:52.000Z,106
2022-08-05T07:15:08.000Z,123
2022-08-05T07:16:24.000Z,135
2022-08-05T07:17:40.000Z,135
2022-08-05T07:18:57.000Z,123
2022-08-05T07:20:13.000Z,101
2022-08-05T07:21:29.000Z,84
2022-08-05T07:22:45.000Z,101
2022-08-05T07:24:02.000Z,101
2022-08-05T07:25:18.000Z,90
2022-08-05T07:26:33.000Z,78
2022-08-05T07:27:49.000Z,84
2022-08-05T07:29:05.000Z,73
2022-08-05T07:30:22.000Z,56
2022-08-05T07:31:38.000Z,50
2022-08-05T07:32:54.000Z,45
2022-08-05T07:34:10.000Z,45
2022-08-05T07:35:26.000Z,50
2022-08-05T07:36:41.000Z,73
2022-08-05T07:37:56.000Z,90
2022-08-05T07:39:11.000Z,106
2022-08-05T07:40:28.000Z,135
2022-08-05T07:41:44.000Z,157
2022-08-05T07:43:00.000Z,185
2022-08-05T07:44:16.000Z,230
2022-08-05T07:45:33.000Z,264
2022-08-05T07:46:49.000Z,253
2022-08-05T07:48:05.000Z,208
2022-08-05T07:49:21.000Z,168
2022-08-05T07:50:38.000Z,140
2022-08-05T07:51:54.000Z,146
2022-08-05T07:53:10.000Z,174
2022-08-05T07:54:26.000Z,202
2022-08-05T07:55:41.000Z,241
2022-08-05T07:56:58.000Z,275
2022-08-05T07:58:14.000Z,303
2022-08-05T07:59:30.000Z,326
2022-08-05T08:00:46.000Z,326
2022-08-05T08:02:03.000Z,309
2022-08-05T08:03:19.000Z,275
2022-08-05T08:04:34.000Z,213
2022-08-05T08:05:49.000Z,180
2022-08-05T08:07:05.000Z,163
2022-08-05T08:08:20.000Z,135
2022-08-05T08:09:36.000Z,118
2022-08-05T08:10:52.000Z,118
2022-08-05T08:12:09.000Z,112
2022-08-05T08:13:25.000Z,106
2022-08-05T08:14:41.000Z,123
2022-08-05T08:15:57.000Z,163
2022-08-05T08:17:14.000Z,213
2022-08-05T08:18:30.000Z,270
2022-08-05T08:19:46.000Z,309
2022-08-05T08:21:02.000Z,292
2022-08-05T08:22:18.000Z,275
2022-08-05T08:23:35.000Z,281
2022-08-05T08:24:50.000Z,320
2022-08-05T08:26:06.000Z,388
2022-08-05T08:27:22.000Z,450
2022-08-05T08:28:39.000Z,466
2022-08-05T08:29:55.000Z,433
2022-08-05T08:31:11.000Z,360
2022-08-05T08:32:27.000Z,320
2022-08-05T08:33:43.000Z,331
2022-08-05T08:34:58.000Z,371
2022-08-05T08:36:13.000Z,354
2022-08-05T08:37:28.000Z,292
2022-08-05T08:38:45.000Z,281
2022-08-05T08:40:01.000Z,286
2022-08-05T08:41:17.000Z,270
2022-08-05T08:42:33.000Z,258
2022-08-05T08:43:50.000Z,247
2022-08-05T08:45:06.000Z,219
2022-08-05T08:46:22.000Z,191
2022-08-05T08:47:38.000Z,157
2022-08-05T08:48:54.000Z,146
2022-08-05T08:50:11.000Z,163
2022-08-05T08:51:27.000Z,196
2022-08-05T08:52:43.000Z,247
2022-08-05T08:53:58.000Z,264
2022-08-05T08:55:15.000Z,270
2022-08-05T08:56:31.000Z,264
2022-08-05T08:57:47.000Z,253
2022-08-05T08:59:03.000Z,236
2022-08-05T09:00:20.000Z,213
2022-08-05T09:01:36.000Z,202
2022-08-05T09:02:52.000Z,219
2022-08-05T09:04:07.000Z,230
2022-08-05T09:05:23.000Z,247
2022-08-05T09:06:39.000Z,247
2022-08-05T09:07:54.000Z,230
2022-08-05T09:09:09.000Z,208
2022-08-05T09:10:26.000Z,196
2022-08-05T09:11:42.000Z,191
2022-08-05T09:12:58.000Z,168
2022-08-05T09:14:14.000Z,168
2022-08-05T09:15:30.000Z,180
2022-08-05T09:16:47.000Z,185
2022-08-05T09:18:03.000Z,185
2022-08-05T09:19:19.000Z,191
2022-08-05T09:20:35.000Z,185
2022-08-05T09:21:52.000Z,168
2022-08-05T09:23:08.000Z,168
2022-08-05T09:24:24.000Z,168
2022-08-05T09:25:39.000Z,191
2022-08-05T09:26:56.000Z,191
2022-08-05T09:28:12.000Z,208
2022-08-05T09:29:28.000Z,230
2022-08-05T09:30:44.000Z,208
2022-08-05T09:32:01.000Z,196
2022-08-05T09:33:17.000Z,219
2022-08-05T09:34:32.000Z,236
2022-08-05T09:35:47.000Z,275
2022-08-05T09:37:03.000Z,292
2022-08-05T09:38:18.000Z,292
2022-08-05T09:39:34.000Z,343
2022-08-05T09:40:50.000Z,399
2022-08-05T09:42:07.000Z,410
2022-08-05T09:43:23.000Z,348
2022-08-05T09:44:39.000Z,309
2022-08-05T09:45:55.000Z,315
2022-08-05T09:47:11.000Z,326
2022-08-05T09:48:28.000Z,354
2022-08-05T09:49:44.000Z,388
2022-08-05T09:51:00.000Z,427
2022-08-05T09:52:16.000Z,416
2022-08-05T09:53:33.000Z,388
2022-08-05T09:54:48.000Z,393
2022-08-05T09:56:04.000Z,399
2022-08-05T09:57:20.000Z,410
2022-08-05T09:58:37.000Z,405
2022-08-05T09:59:53.000Z,421
2022-08-05T10:01:09.000Z,455
2022-08-05T10:02:25.000Z,478
2022-08-05T10:03:41.000Z,455
2022-08-05T10:04:56.000Z,427
2022-08-05T10:06:12.000Z,444
2022-08-05T10:07:27.000Z,444
2022-08-05T10:08:43.000Z,466
2022-08-05T10:09:59.000Z,556
2022-08-05T10:11:15.000Z,596
2022-08-05T10:12:31.000Z,568
2022-08-05T10:13:47.000Z,534
2022-08-05T10:15:04.000Z,528
2022-08-05T10:16:20.000Z,534
2022-08-05T10:17:36.000Z,551
2022-08-05T10:18:52.000Z,517
2022-08-05T10:20:09.000Z,433
2022-08-05T10:21:25.000Z,421
2022-08-05T10:22:41.000Z,483
2022-08-05T10:23:57.000Z,528
2022-08-05T10:25:13.000Z,511
2022-08-05T10:26:29.000Z,478
2022-08-05T10:27:45.000Z,461
2022-08-05T10:29:01.000Z,483
2022-08-05T10:30:18.000Z,601
2022-08-05T10:31:34.000Z,748
2022-08-05T10:32:50.000Z,776
2022-08-05T10:34:05.000Z,714
2022-08-05T10:35:21.000Z,708
2022-08-05T10:36:36.000Z,725
2022-08-05T10:37:51.000Z,781
2022-08-05T10:39:07.000Z,781
2022-08-05T10:40:23.000Z,736
2022-08-05T10:41:40.000Z,753
2022-08-05T10:42:56.000Z,765
2022-08-05T10:44:12.000Z,821
2022-08-05T10:45:28.000Z,860
2022-08-05T10:46:45.000Z,888
2022-08-05T10:48:01.000Z,916
2022-08-05T10:49:17.000Z,911
2022-08-05T10:50:33.000Z,916
2022-08-05T10:51:50.000Z,961
2022-08-05T10:53:06.000Z,1012
2022-08-05T10:54:21.000Z,1023
2022-08-05T10:55:37.000Z,945
2022-08-05T10:56:54.000Z,877
2022-08-05T10:58:10.000Z,883
2022-08-05T10:59:26.000Z,922
2022-08-05T11:00:42.000Z,933
2022-08-05T11:01:58.000Z,894
2022-08-05T11:03:15.000Z,838
2022-08-05T11:04:30.000Z,832
2022-08-05T11:05:45.000Z,821
2022-08-05T11:07:00.000Z,832
2022-08-05T11:08:16.000Z,883
2022-08-05T11:09:32.000Z,933
2022-08-05T11:10:48.000Z,933
2022-08-05T11:12:04.000Z,866
2022-08-05T11:13:21.000Z,832
2022-08-05T11:14:37.000Z,832
2022-08-05T11:15:53.000Z,911
2022-08-05T11:17:09.000Z,967
2022-08-05T11:18:26.000Z,961
2022-08-05T11:19:42.000Z,950
2022-08-05T11:20:58.000Z,922
2022-08-05T11:22:14.000Z,900
2022-08-05T11:23:31.000Z,894
2022-08-05T11:24:47.000Z,877
2022-08-05T11:26:03.000Z,855
2022-08-05T11:27:18.000Z,849
2022-08-05T11:28:34.000Z,877
2022-08-05T11:29:51.000Z,939
2022-08-05T11:31:07.000Z,945
2022-08-05T11:32:23.000Z,928
2022-08-05T11:33:38.000Z,978
2022-08-05T11:34:54.000Z,1018
2022-08-05T11:36:10.000Z,1029
2022-08-05T11:37:26.000Z,1001
2022-08-05T11:38:42.000Z,961
2022-08-05T11:39:59.000Z,933
2022-08-05T11:41:15.000Z,945
2022-08-05T11:42:30.000Z,956
2022-08-05T11:43:45.000Z,945
2022-08-05T11:45:02.000Z,866
2022-08-05T11:46:18.000Z,804
2022-08-05T11:47:34.000Z,781
2022-08-05T11:48:50.000Z,804
2022-08-05T11:50:07.000Z,826
2022-08-05T11:51:23.285Z,866
2022-08-05T11:52:39.000Z,933
2022-08-05T11:53:55.000Z,900
2022-08-05T11:55:11.000Z,871
2022-08-05T11:56:28.000Z,922
2022-08-05T11:57:44.000Z,945
2022-08-05T11:59:00.000Z,928
2022-08-05T12:00:15.000Z,984
2022-08-05T12:01:32.000Z,1063
2022-08-05T12:02:48.000Z,1181
2022-08-05T12:04:04.000Z,1085
2022-08-05T12:05:20.000Z,1091
2022-08-05T12:06:37.000Z,1029
2022-08-05T12:07:53.000Z,877
2022-08-05T12:09:09.000Z,838
2022-08-05T12:10:25.000Z,849
2022-08-05T12:11:42.000Z,810
2022-08-05T12:12:58.000Z,793
2022-08-05T12:14:14.000Z,691
2022-08-05T12:15:30.000Z,585
2022-08-05T12:16:45.000Z,573
2022-08-05T12:18:02.000Z,635
2022-08-05T12:19:18.000Z,686
2022-08-05T12:20:34.000Z,725
2022-08-05T12:21:50.000Z,765
2022-08-05T12:23:07.000Z,748
2022-08-05T12:24:22.000Z,725
2022-08-05T12:25:37.000Z,708
2022-08-05T12:26:53.000Z,748
2022-08-05T12:28:10.000Z,832
2022-08-05T12:29:26.000Z,832
2022-08-05T12:30:42.000Z,855
2022-08-05T12:31:57.000Z,905
2022-08-05T12:33:13.000Z,877
2022-08-05T12:34:29.000Z,810
2022-08-05T12:35:45.000Z,832
2022-08-05T12:37:01.000Z,922
2022-08-05T12:38:18.000Z,1023
2022-08-05T12:39:34.000Z,978
2022-08-05T12:40:50.000Z,1001
2022-08-05T12:42:06.000Z,1035
2022-08-05T12:43:22.000Z,1006
2022-08-05T12:44:39.000Z,922
2022-08-05T12:45:55.000Z,821
2022-08-05T12:47:11.000Z,793
2022-08-05T12:48:27.000Z,798
2022-08-05T12:49:43.000Z,888
2022-08-05T12:50:59.000Z,961
2022-08-05T12:52:15.000Z,961
2022-08-05T12:53:31.000Z,1181
2022-08-05T12:54:48.000Z,1164
2022-08-05T12:56:04.000Z,1198
2022-08-05T12:57:20.000Z,1181
2022-08-05T12:58:35.000Z,1198
2022-08-05T12:59:51.000Z,1068
2022-08-05T13:01:07.000Z,933
2022-08-05T13:02:22.000Z,748
2022-08-05T13:03:37.000Z,551
2022-08-05T13:04:54.000Z,568
2022-08-05T13:06:10.000Z,641
2022-08-05T13:07:26.000Z,534
2022-08-05T13:08:42.000Z,545
2022-08-05T13:09:59.000Z,601
2022-08-05T13:11:15.000Z,691
2022-08-05T13:12:31.000Z,731
2022-08-05T13:13:47.000Z,697
2022-08-05T13:15:03.000Z,613
2022-08-05T13:16:20.000Z,590
2022-08-05T13:17:36.000Z,585
2022-08-05T13:18:52.000Z,669
2022-08-05T13:20:07.000Z,793
2022-08-05T13:21:24.000Z,787
2022-08-05T13:22:40.000Z,748
2022-08-05T13:23:56.000Z,759
2022-08-05T13:25:12.000Z,776
2022-08-05T13:26:29.000Z,815
2022-08-05T13:27:45.000Z,821
2022-08-05T13:29:00.000Z,804
2022-08-05T13:30:15.000Z,793
2022-08-05T13:31:32.000Z,804
2022-08-05T13:32:47.000Z,815
2022-08-05T13:34:02.000Z,855
2022-08-05T13:35:18.000Z,911
2022-08-05T13:36:35.000Z,950
2022-08-05T13:37:51.000Z,973
2022-08-05T13:39:07.000Z,990
2022-08-05T13:40:23.000Z,984
2022-08-05T13:41:39.000Z,1130
2022-08-05T13:42:56.000Z,1080
2022-08-05T13:44:12.000Z,1068
2022-08-05T13:45:28.000Z,1029
2022-08-05T13:46:44.000Z,1023
2022-08-05T13:48:01.000Z,1265
2022-08-05T13:49:17.000Z,877
2022-08-05T13:50:32.000Z,821
2022-08-05T13:51:48.000Z,742
2022-08-05T13:53:05.000Z,725
2022-08-05T13:54:21.000Z,776
2022-08-05T13:55:37.000Z,832
2022-08-05T13:56:53.000Z,928
2022-08-05T13:58:10.000Z,1800
2022-08-05T13:59:25.000Z,2244
2022-08-05T14:00:40.000Z,1170
2022-08-05T14:01:55.000Z,1428
2022-08-05T14:03:11.000Z,1023
2022-08-05T14:04:27.000Z,1012
2022-08-05T14:05:43.000Z,1428
2022-08-05T14:06:59.000Z,2216
2022-08-05T14:08:15.000Z,1507
2022-08-05T14:09:32.000Z,2452
2022-08-05T14:10:48.000Z,2019
2022-08-05T14:12:04.000Z,2193
2022-08-05T14:13:20.000Z,2598
2022-08-05T14:14:37.000Z,2581
2022-08-05T14:15:53.000Z,2328
2022-08-05T14:17:09.000Z,2385
2022-08-05T14:18:25.000Z,2272
2022-08-05T14:19:41.000Z,2148
2022-08-05T14:20:57.000Z,2098
2022-08-05T14:22:13.000Z,2086
2022-08-05T14:23:29.000Z,2261
2022-08-05T14:24:46.000Z,781
2022-08-05T14:26:02.000Z,905
2022-08-05T14:27:18.000Z,1063
2022-08-05T14:28:33.000Z,1653
2022-08-05T14:29:49.000Z,2362
2022-08-05T14:31:05.000Z,2362
2022-08-05T14:32:21.000Z,2418
2022-08-05T14:33:37.000Z,2531
2022-08-05T14:34:53.000Z,2570
2022-08-05T14:36:10.000Z,2531
2022-08-05T14:37:26.000Z,2306
2022-08-05T14:38:42.000Z,2385
2022-08-05T14:39:58.000Z,1243
2022-08-05T14:41:14.000Z,821
2022-08-05T14:42:29.000Z,1074
2022-08-05T14:43:45.000Z,832
2022-08-05T14:45:01.000Z,641
2022-08-05T14:46:18.000Z,922
2022-08-05T14:47:34.000Z,573
2022-08-05T14:48:50.000Z,697
2022-08-05T14:50:06.000Z,2002
2022-08-05T14:51:23.000Z,2092
2022-08-05T14:52:39.000Z,2137
2022-08-05T14:53:55.000Z,2160
2022-08-05T14:55:11.000Z,2075
2022-08-05T14:56:27.000Z,2137
2022-08-05T14:57:44.000Z,1991
2022-08-05T14:58:59.000Z,2036
2022-08-05T15:00:15.000Z,1856
2022-08-05T15:01:31.000Z,1963
2022-08-05T15:02:48.000Z,1940
2022-08-05T15:04:04.000Z,1878
2022-08-05T15:05:20.000Z,1794
2022-08-05T15:06:36.000Z,1659
2022-08-05T15:07:52.000Z,1783
2022-08-05T15:09:07.000Z,573
2022-08-05T15:10:22.000Z,517
2022-08-05T15:11:37.000Z,489
2022-08-05T15:12:54.000Z,500
2022-08-05T15:14:10.000Z,596
2022-08-05T15:15:26.000Z,810
2022-08-05T15:16:42.000Z,1215
2022-08-05T15:17:59.000Z,1546
2022-08-05T15:19:14.000Z,1648
2022-08-05T15:20:30.000Z,1676
2022-08-05T15:21:46.000Z,1614
2022-08-05T15:23:03.000Z,1603
2022-08-05T15:24:19.000Z,1766
2022-08-05T15:25:35.000Z,1873
2022-08-05T15:26:51.000Z,1884
2022-08-05T15:28:07.000Z,1884
2022-08-05T15:29:24.000Z,1771
2022-08-05T15:30:40.000Z,1783
2022-08-05T15:31:56.000Z,1850
2022-08-05T15:33:12.000Z,1929
2022-08-05T15:34:29.000Z,1839
2022-08-05T15:35:44.000Z,1811
2022-08-05T15:37:00.000Z,1861
2022-08-05T15:38:16.000Z,1878
2022-08-05T15:39:33.000Z,1794
2022-08-05T15:40:49.000Z,1732
2022-08-05T15:42:05.000Z,1800
2022-08-05T15:43:21.000Z,1901
2022-08-05T15:44:38.000Z,1912
2022-08-05T15:45:54.000Z,1884
2022-08-05T15:47:10.000Z,1822
2022-08-05T15:48:26.000Z,1721
2022-08-05T15:49:42.000Z,1541
2022-08-05T15:50:59.000Z,1575
2022-08-05T15:52:14.000Z,1665
2022-08-05T15:53:30.000Z,1580
2022-08-05T15:54:46.000Z,1923
2022-08-05T15:56:03.000Z,2598
2022-08-05T15:57:19.000Z,2756
2022-08-05T15:58:35.000Z,1957
2022-08-05T15:59:51.000Z,1811
2022-08-05T16:01:08.000Z,1726
2022-08-05T16:02:24.000Z,1631
2022-08-05T16:03:40.000Z,1693
2022-08-05T16:04:56.000Z,1996
2022-08-05T16:06:13.000Z,1873
2022-08-05T16:07:29.000Z,1591
2022-08-05T16:08:44.000Z,1530
2022-08-05T16:10:00.000Z,1440
2022-08-05T16:11:15.000Z,1434
2022-08-05T16:12:32.000Z,1400
2022-08-05T16:13:47.000Z,1400
2022-08-05T16:15:03.000Z,1428
2022-08-05T16:16:19.000Z,1417
2022-08-05T16:17:36.000Z,1445
2022-08-05T16:18:52.000Z,1423
2022-08-05T16:20:08.000Z,1395
2022-08-05T16:21:23.000Z,1411
2022-08-05T16:22:39.000Z,1378
2022-08-05T16:23:55.000Z,1333
2022-08-05T16:25:11.000Z,1327
2022-08-05T16:26:27.000Z,1310
2022-08-05T16:27:44.000Z,1383
2022-08-05T16:29:00.000Z,1344
2022-08-05T16:30:16.000Z,1333
2022-08-05T16:31:32.000Z,1344
2022-08-05T16:32:49.000Z,1389
2022-08-05T16:34:05.000Z,1389
2022-08-05T16:35:21.000Z,1231
2022-08-05T16:36:37.000Z,1265
2022-08-05T16:37:53.000Z,1299
2022-08-05T16:39:09.000Z,1417
2022-08-05T16:40:25.000Z,1288
2022-08-05T16:41:41.000Z,1316
2022-08-05T16:42:57.000Z,1344
2022-08-05T16:45:30.000Z,1366
2022-08-05T16:46:46.000Z,1293
2022-08-05T16:48:02.000Z,1293
2022-08-05T16:49:19.000Z,1220
2022-08-05T16:50:35.000Z,1192
2022-08-05T16:51:51.000Z,1231
2022-08-05T16:53:07.000Z,1288
2022-08-05T16:54:24.000Z,1265
2022-08-05T16:55:39.000Z,1243
2022-08-05T16:56:55.000Z,1254
2022-08-05T16:58:11.000Z,1260
2022-08-05T16:59:27.000Z,1198
2022-08-05T17:00:44.000Z,1113
2022-08-05T17:02:00.000Z,1001
2022-08-05T17:03:16.000Z,793
2022-08-05T17:04:32.000Z,748
2022-08-05T17:05:49.000Z,736
2022-08-05T17:07:05.000Z,714
2022-08-05T17:08:21.000Z,708
2022-08-05T17:09:37.000Z,714
2022-08-05T17:10:54.000Z,720
2022-08-05T17:12:09.000Z,697
2022-08-05T17:13:24.000Z,691
2022-08-05T17:14:40.000Z,686
2022-08-05T17:15:57.000Z,686
2022-08-05T17:17:13.000Z,680
2022-08-05T17:18:29.000Z,697
2022-08-05T17:19:45.000Z,691
2022-08-05T17:21:01.000Z,680
2022-08-05T17:22:16.000Z,669
2022-08-05T17:23:32.000Z,663
2022-08-05T17:24:48.000Z,646
2022-08-05T17:26:04.000Z,652
2022-08-05T17:27:21.000Z,641
2022-08-05T17:28:37.000Z,624
2022-08-05T17:29:53.000Z,618
2022-08-05T17:31:09.000Z,618
2022-08-05T17:32:26.000Z,607
2022-08-05T17:33:42.000Z,601
2022-08-05T17:34:58.000Z,607
2022-08-05T17:36:14.000Z,601
2022-08-05T17:37:31.000Z,601
2022-08-05T17:38:46.000Z,607
2022-08-05T17:40:02.000Z,601
2022-08-05T17:41:18.000Z,613
2022-08-05T17:42:35.000Z,601
2022-08-05T17:43:51.000Z,585
2022-08-05T17:45:07.000Z,607
2022-08-05T17:46:23.000Z,585